Time;durP1;ratioP1;P1;durP2;ratioP2;P2;SDS_P1;SDS_P2;PMS_P1;PMS_P2;Temp;Humidity;BMP_temperature;BMP_pressure;BME280_temperature;BME280_humidity;BME280_pressure;Samples;Min_cycle;Max_cycle;Signal;HPM_P1;HPM_P2
2022/04/28 00:01:51;;;;;;;4.20;3.90;;;;;;;7.56;81.64;96143.72;5095299;28;20525;-58
2022/04/28 00:04:17;;;;;;;3.33;3.13;;;;;;;7.54;82.50;96142.16;5089232;28;20021;-57
2022/04/28 00:06:43;;;;;;;3.47;3.22;;;;;;;7.44;83.08;96144.59;5089967;28;20024;-58
2022/04/28 00:09:08;;;;;;;3.70;3.40;;;;;;;7.43;82.80;96138.56;5097639;28;20027;-58
2022/04/28 00:11:34;;;;;;;3.80;3.50;;;;;;;7.42;82.41;96136.88;5099526;28;20024;-58
2022/04/28 00:14:00;;;;;;;3.65;3.35;;;;;;;7.47;82.53;96141.75;5091564;28;20035;-58
2022/04/28 00:16:26;;;;;;;4.78;3.60;;;;;;;7.48;81.83;96142.63;5089150;28;20032;-58
2022/04/28 00:18:51;;;;;;;3.63;3.42;;;;;;;7.47;82.63;96144.38;5088822;28;20017;-58
2022/04/28 00:21:17;;;;;;;3.70;3.40;;;;;;;7.40;82.03;96146.59;5090601;28;20042;-58
2022/04/28 00:23:42;;;;;;;4.22;3.40;;;;;;;7.38;83.35;96140.66;5097207;28;20024;-58
2022/04/28 00:26:08;;;;;;;4.18;3.50;;;;;;;7.35;82.40;96150.53;5097146;28;20479;-58
2022/04/28 00:28:33;;;;;;;4.53;3.17;;;;;;;7.31;83.16;96142.03;5092803;28;20024;-58
2022/04/28 00:30:59;;;;;;;3.95;3.65;;;;;;;7.27;84.85;96146.66;5089803;28;20055;-57
2022/04/28 00:33:24;;;;;;;3.78;3.58;;;;;;;7.25;83.42;96145.94;5099700;28;20075;-58
2022/04/28 00:35:50;;;;;;;3.72;3.42;;;;;;;7.21;83.87;96147.09;5094815;28;20480;-58
2022/04/28 00:38:15;;;;;;;3.67;3.47;;;;;;;7.19;83.51;96143.75;5089613;28;20012;-58
2022/04/28 00:40:41;;;;;;;3.95;3.55;;;;;;;7.16;83.58;96144.00;5097357;28;20376;-58
2022/04/28 00:43:19;;;;;;;3.88;3.58;;;;;;;7.16;83.60;96150.03;5094471;28;20027;-58
2022/04/28 00:45:45;;;;;;;3.63;3.33;;;;;;;7.13;83.73;96144.22;5087976;28;20063;-58
2022/04/28 00:50:57;;;;;;;3.67;3.38;;;;;;;7.07;83.48;96155.94;5093943;28;20074;-58
2022/04/28 00:53:24;;;;;;;4.13;3.65;;;;;;;7.09;84.29;96154.06;5096898;28;20056;-58
2022/04/28 00:55:49;;;;;;;3.58;3.38;;;;;;;7.09;83.75;96153.25;5082581;28;20046;-58
2022/04/28 00:58:15;;;;;;;3.38;3.17;;;;;;;7.07;83.48;96153.34;5094400;28;20032;-58
2022/04/28 01:00:40;;;;;;;4.00;3.70;;;;;;;7.04;85.27;96158.78;5088574;28;20059;-58
2022/04/28 01:03:06;;;;;;;3.25;3.05;;;;;;;7.02;85.15;96153.66;5090600;28;20081;-58
2022/04/28 01:05:32;;;;;;;3.60;3.30;;;;;;;7.06;84.62;96156.91;5094273;28;20028;-58
2022/04/28 01:07:58;;;;;;;3.80;3.60;;;;;;;7.07;85.65;96163.81;5090370;28;20059;-58
2022/04/28 01:10:24;;;;;;;5.55;3.90;;;;;;;7.01;84.52;96161.63;5092237;28;20111;-58
2022/04/28 01:12:49;;;;;;;4.30;4.00;;;;;;;7.00;84.84;96165.19;5100601;28;20122;-58
2022/04/28 01:15:15;;;;;;;4.32;3.65;;;;;;;6.97;85.38;96162.78;5083355;28;20042;-58
2022/04/28 01:17:40;;;;;;;3.92;3.53;;;;;;;6.95;85.06;96167.28;5093183;28;20031;-58
2022/04/28 01:20:08;;;;;;;3.97;3.70;;;;;;;6.86;85.41;96164.38;5093914;28;20027;-58
2022/04/28 01:22:34;;;;;;;3.20;3.00;;;;;;;6.82;85.43;96165.53;5097200;28;20077;-58
2022/04/28 01:25:07;;;;;;;6.28;3.88;;;;;;;6.86;85.10;96168.78;5090486;28;20488;-58
2022/04/28 01:27:37;;;;;;;4.82;4.30;;;;;;;6.80;85.29;96161.34;5091675;28;20035;-58
2022/04/28 01:30:10;;;;;;;3.88;3.58;;;;;;;6.79;85.29;96163.13;5092221;28;20032;-58
2022/04/28 01:32:35;;;;;;;3.40;3.20;;;;;;;6.72;85.87;96167.94;5090051;28;20387;-58
2022/04/28 01:35:01;;;;;;;3.30;3.10;;;;;;;6.69;84.95;96167.31;5090873;28;20020;-58
2022/04/28 01:37:26;;;;;;;4.75;3.30;;;;;;;6.65;85.18;96174.56;5093467;28;20527;-58
2022/04/28 01:39:53;;;;;;;3.92;3.65;;;;;;;6.65;84.68;96164.09;5094429;28;20639;-58
2022/04/28 01:42:18;;;;;;;3.97;3.67;;;;;;;6.57;85.11;96175.09;5089199;28;20492;-58
2022/04/28 01:44:44;;;;;;;3.90;3.67;;;;;;;6.54;86.21;96171.81;5085495;28;20044;-59
2022/04/28 01:47:09;;;;;;;3.90;3.65;;;;;;;6.51;85.86;96175.47;5094104;28;20479;-58
2022/04/28 01:49:36;;;;;;;3.83;3.53;;;;;;;6.54;86.27;96174.44;5097049;28;20489;-58
2022/04/28 01:54:57;;;;;;;7.18;3.58;;;;;;;6.48;86.96;96178.31;5087422;28;20053;-58
2022/04/28 01:57:30;;;;;;;4.22;3.83;;;;;;;6.45;86.45;96175.91;5089626;28;20051;-58
2022/04/28 01:59:58;;;;;;;3.92;3.63;;;;;;;6.42;86.64;96182.22;5092192;28;20517;-58
2022/04/28 02:02:24;;;;;;;3.67;3.47;;;;;;;6.39;88.25;96178.94;5095097;28;20103;-58
2022/04/28 02:04:50;;;;;;;4.18;3.90;;;;;;;6.37;89.14;96179.03;5086316;28;20646;-58
2022/04/28 02:07:16;;;;;;;4.28;3.88;;;;;;;6.33;88.56;96182.81;5089833;28;20031;-58
2022/04/28 02:09:45;;;;;;;4.13;3.65;;;;;;;6.31;89.04;96179.47;5092880;28;20024;-59
2022/04/28 02:12:13;;;;;;;6.15;3.90;;;;;;;6.30;89.35;96189.09;5096914;28;20016;-58
2022/04/28 02:14:39;;;;;;;3.92;3.53;;;;;;;6.30;89.97;96181.25;5087123;28;20048;-58
2022/04/28 02:17:05;;;;;;;4.15;3.72;;;;;;;6.30;89.90;96194.34;5093019;28;20012;-58
2022/04/28 02:19:31;;;;;;;3.97;3.67;;;;;;;6.27;91.16;96194.50;5097155;28;20028;-58
2022/04/28 02:21:57;;;;;;;5.10;3.67;;;;;;;6.28;90.56;96200.59;5093983;28;20086;-58
2022/04/28 02:24:22;;;;;;;4.00;3.70;;;;;;;6.27;90.85;96193.69;5085162;28;20052;-58
2022/04/28 02:26:48;;;;;;;4.15;3.75;;;;;;;6.24;90.10;96199.13;5088708;28;20093;-58
2022/04/28 02:29:14;;;;;;;4.75;4.35;;;;;;;6.20;90.49;96203.72;5091760;28;20023;-58
2022/04/28 02:31:39;;;;;;;4.82;4.43;;;;;;;6.20;89.66;96195.88;5091963;28;20391;-58
2022/04/28 02:34:05;;;;;;;4.82;4.43;;;;;;;6.17;90.97;96198.69;5094102;28;20555;-58
2022/04/28 02:36:30;;;;;;;5.13;3.88;;;;;;;6.11;90.95;96202.53;5092321;28;20027;-58
2022/04/28 02:38:56;;;;;;;4.03;3.72;;;;;;;6.08;90.94;96194.06;5085696;28;20032;-58
2022/04/28 02:41:21;;;;;;;3.50;3.30;;;;;;;6.10;89.88;96200.06;5088461;28;20012;-58
2022/04/28 02:43:51;;;;;;;3.65;3.45;;;;;;;6.13;88.89;96199.84;5093156;28;20721;-58
2022/04/28 02:46:18;;;;;;;3.97;3.67;;;;;;;6.18;88.71;96199.53;5091458;28;20491;-58
2022/04/28 02:48:44;;;;;;;5.15;3.60;;;;;;;6.17;89.00;96196.09;5085817;28;20118;-58
2022/04/28 02:51:10;;;;;;;4.65;4.25;;;;;;;6.08;89.67;96201.91;5082829;28;20502;-58
2022/04/28 02:53:36;;;;;;;3.67;3.38;;;;;;;6.08;89.20;96204.50;5092721;28;20023;-58
2022/04/28 02:56:02;;;;;;;8.00;4.20;;;;;;;6.05;88.88;96207.34;5095067;28;20441;-58
2022/04/28 02:58:27;;;;;;;3.75;3.45;;;;;;;6.00;89.93;96202.41;5093690;28;20034;-58
2022/04/28 03:00:53;;;;;;;4.38;3.95;;;;;;;6.00;89.76;96202.41;5091537;28;20024;-58
2022/04/28 03:03:19;;;;;;;3.90;3.60;;;;;;;5.98;90.09;96204.28;5092293;28;20024;-58
2022/04/28 03:11:12;;;;;;;4.05;3.75;;;;;;;5.85;90.88;96201.59;5093263;28;20201;-58
2022/04/28 03:13:39;;;;;;;4.28;3.88;;;;;;;5.79;89.98;96207.25;5091880;28;20103;-58
2022/04/28 03:16:05;;;;;;;4.38;4.07;;;;;;;5.82;89.88;96194.81;5094343;28;20059;-58
2022/04/28 03:18:31;;;;;;;7.68;7.07;;;;;;;5.77;90.22;96193.44;5097231;28;20027;-59
2022/04/28 03:20:56;;;;;;;6.00;5.57;;;;;;;5.73;90.60;96198.03;5093422;28;20023;-58
2022/04/28 03:23:23;;;;;;;4.28;3.95;;;;;;;5.69;90.65;96205.25;5093073;28;20028;-58
2022/04/28 03:25:51;;;;;;;4.63;4.32;;;;;;;5.70;89.35;96193.84;5094465;28;20513;-58
2022/04/28 03:28:20;;;;;;;4.28;3.85;;;;;;;5.68;89.80;96197.47;5096052;28;20430;-59
2022/04/28 03:30:46;;;;;;;3.92;3.63;;;;;;;5.67;89.82;96201.88;5094371;28;20028;-59
2022/04/28 03:33:12;;;;;;;4.22;3.83;;;;;;;5.66;90.30;96204.59;5090246;28;20527;-59
2022/04/28 03:35:39;;;;;;;3.53;3.20;;;;;;;5.57;90.11;96200.78;5095679;28;20106;-59
2022/04/28 03:38:05;;;;;;;4.10;3.80;;;;;;;5.55;90.35;96208.75;5094117;28;20058;-59
2022/04/28 03:40:30;;;;;;;5.40;3.67;;;;;;;5.53;90.24;96202.78;5092978;28;20024;-59
2022/04/28 03:42:57;;;;;;;4.20;3.80;;;;;;;5.52;90.34;96213.31;5091256;28;20032;-58
2022/04/28 03:45:24;;;;;;;4.47;4.15;;;;;;;5.45;91.59;96218.06;5094309;28;20110;-59
2022/04/28 03:47:50;;;;;;;4.35;3.88;;;;;;;5.43;91.84;96218.19;5092052;28;20024;-58
2022/04/28 03:50:16;;;;;;;4.35;4.05;;;;;;;5.40;93.10;96220.97;5092584;28;20024;-58
2022/04/28 03:52:42;;;;;;;4.28;3.97;;;;;;;5.41;93.54;96212.19;5090575;28;20030;-58
2022/04/28 03:55:09;;;;;;;4.18;3.60;;;;;;;5.39;93.69;96219.31;5094507;28;20028;-58
2022/04/28 03:57:36;;;;;;;4.47;4.18;;;;;;;5.39;93.80;96229.75;5089752;28;20089;-58
2022/04/28 04:00:10;;;;;;;5.00;4.60;;;;;;;5.37;93.66;96229.00;5097326;28;20028;-58
2022/04/28 04:02:36;;;;;;;4.15;3.78;;;;;;;5.34;93.32;96233.59;5091747;28;20024;-58
2022/04/28 04:05:01;;;;;;;5.35;4.00;;;;;;;5.37;92.40;96230.78;5091830;28;20078;-58
2022/04/28 04:07:31;;;;;;;4.63;4.22;;;;;;;5.38;92.61;96235.09;5090378;28;20028;-58
2022/04/28 04:09:57;;;;;;;4.53;4.18;;;;;;;5.35;92.70;96232.66;5094237;28;20027;-57
2022/04/28 04:12:22;;;;;;;6.95;5.10;;;;;;;5.31;92.83;96237.22;5092926;28;20016;-58
2022/04/28 04:14:48;;;;;;;7.22;4.40;;;;;;;5.30;93.34;96235.56;5093240;28;20106;-59
2022/04/28 04:17:14;;;;;;;5.00;4.70;;;;;;;5.32;92.68;96228.47;5091900;28;20028;-58
2022/04/28 04:19:39;;;;;;;5.65;3.83;;;;;;;5.32;92.70;96238.09;5093853;28;20031;-58
2022/04/28 04:22:05;;;;;;;3.70;3.40;;;;;;;5.31;93.43;96237.22;5092108;28;20027;-58
2022/04/28 04:24:30;;;;;;;4.50;4.10;;;;;;;5.25;93.63;96240.22;5090641;28;20479;-59
2022/04/28 04:26:58;;;;;;;5.20;4.60;;;;;;;5.23;93.45;96242.94;5091104;28;20048;-59
2022/04/28 04:29:23;;;;;;;3.92;3.63;;;;;;;5.21;94.12;96246.59;5089683;28;20050;-58
2022/04/28 04:34:33;;;;;;;5.72;4.85;;;;;;;5.26;94.01;96255.78;5091607;28;20399;-58
2022/04/28 04:36:58;;;;;;;4.40;4.10;;;;;;;5.24;94.42;96256.84;5092340;28;20024;-58
2022/04/28 04:39:24;;;;;;;8.40;4.43;;;;;;;5.25;94.00;96258.50;5092074;28;20027;-58
2022/04/28 04:41:49;;;;;;;4.80;4.40;;;;;;;5.22;94.41;96263.94;5094587;28;20085;-58
2022/04/28 04:44:15;;;;;;;4.38;4.07;;;;;;;5.22;93.45;96259.53;5092345;28;20660;-59
2022/04/28 04:46:41;;;;;;;4.13;3.88;;;;;;;5.22;93.37;96269.16;5091170;28;20544;-58
2022/04/28 04:49:07;;;;;;;4.28;3.97;;;;;;;5.22;93.36;96267.34;5091304;28;20020;-58
2022/04/28 04:51:53;;;;;;;5.13;4.50;;;;;;;5.27;93.88;96267.09;5089717;28;20028;-58
2022/04/28 04:54:20;;;;;;;5.10;4.07;;;;;;;5.28;93.19;96268.75;5093021;28;20030;-57
2022/04/28 04:56:45;;;;;;;4.65;4.28;;;;;;;5.26;93.49;96270.63;5095813;28;20090;-58
2022/04/28 04:59:11;;;;;;;4.28;4.00;;;;;;;5.27;93.72;96267.91;5096313;28;20493;-58
2022/04/28 05:01:36;;;;;;;10.60;4.32;;;;;;;5.27;93.70;96272.31;5096328;28;20487;-58
2022/04/28 05:04:02;;;;;;;5.00;4.18;;;;;;;5.25;93.58;96275.00;5094608;28;20111;-58
2022/04/28 05:06:27;;;;;;;4.55;4.15;;;;;;;5.26;93.08;96275.84;5097927;28;20019;-58
2022/04/28 05:08:53;;;;;;;4.57;4.18;;;;;;;5.29;92.87;96275.66;5095063;28;20803;-57
2022/04/28 05:11:18;;;;;;;4.60;4.05;;;;;;;5.34;92.90;96278.81;5095003;28;20028;-57
2022/04/28 05:13:44;;;;;;;5.20;4.25;;;;;;;5.34;93.93;96285.81;5075372;28;20035;-58
2022/04/28 05:16:10;;;;;;;4.53;4.13;;;;;;;5.29;93.19;96280.88;5096426;28;20031;-57
2022/04/28 05:18:35;;;;;;;4.70;4.28;;;;;;;5.30;92.40;96293.00;5094485;28;20023;-58
2022/04/28 05:21:01;;;;;;;4.97;4.50;;;;;;;5.33;92.14;96287.59;5095313;28;20036;-58
2022/04/28 05:23:26;;;;;;;7.22;4.90;;;;;;;5.37;92.15;96286.44;5094253;28;20032;-58
2022/04/28 05:25:52;;;;;;;7.68;4.72;;;;;;;5.39;92.53;96284.59;5095363;28;20051;-58
2022/04/28 05:28:17;;;;;;;4.50;3.95;;;;;;;5.40;93.01;96286.25;5093663;28;20501;-57
2022/04/28 05:30:42;;;;;;;8.90;4.95;;;;;;;5.41;92.92;96292.34;5099830;28;20044;-58
2022/04/28 05:33:08;;;;;;;5.40;4.03;;;;;;;5.42;93.02;96294.88;5098008;28;20027;-58
2022/04/28 05:35:39;;;;;;;5.35;4.63;;;;;;;5.47;92.93;96285.91;5097090;28;20380;-58
2022/04/28 05:38:05;;;;;;;4.97;4.57;;;;;;;5.46;93.44;96292.88;5093610;28;20518;-58
2022/04/28 05:40:30;;;;;;;8.82;4.57;;;;;;;5.51;92.72;96295.22;5094801;28;20451;-57
2022/04/28 05:45:43;;;;;;;4.35;4.05;;;;;;;5.52;93.12;96302.13;5096826;28;20089;-57
2022/04/28 05:48:10;;;;;;;4.05;3.75;;;;;;;5.57;93.51;96307.88;5092555;28;20044;-57
2022/04/28 05:50:37;;;;;;;5.60;5.10;;;;;;;5.65;92.69;96299.56;5090772;28;20028;-58
2022/04/28 05:53:02;;;;;;;4.60;4.30;;;;;;;5.80;92.44;96300.38;5092284;28;20031;-57
2022/04/28 05:55:28;;;;;;;5.32;4.72;;;;;;;5.91;91.26;96303.16;5096179;28;20028;-58
2022/04/28 05:57:53;;;;;;;4.30;3.80;;;;;;;6.19;90.35;96308.38;5093010;28;20596;-58
2022/04/28 06:00:19;;;;;;;5.65;5.10;;;;;;;6.46;89.34;96300.53;5094338;28;20115;-58
2022/04/28 06:02:44;;;;;;;6.38;4.30;;;;;;;6.74;89.00;96307.38;5092366;28;20040;-58
2022/04/28 06:05:10;;;;;;;7.80;4.38;;;;;;;6.95;87.23;96306.88;5090906;28;20035;-58
2022/04/28 06:07:35;;;;;;;3.97;3.67;;;;;;;7.20;85.26;96312.22;5095442;28;20395;-58
2022/04/28 06:10:00;;;;;;;4.00;3.70;;;;;;;7.51;84.14;96312.69;5093494;28;20060;-58
2022/04/28 06:12:27;;;;;;;2.92;2.80;;;;;;;7.78;82.75;96315.16;5095256;28;20421;-58
2022/04/28 06:14:54;;;;;;;7.80;3.47;;;;;;;8.11;80.94;96311.03;5093221;28;20032;-58
2022/04/28 06:17:19;;;;;;;4.00;3.70;;;;;;;8.49;79.75;96306.53;5094847;28;20032;-59
2022/04/28 06:19:45;;;;;;;4.15;3.85;;;;;;;8.88;78.03;96307.16;5093190;28;20498;-58
2022/04/28 06:22:10;;;;;;;4.25;3.95;;;;;;;9.23;76.67;96312.50;5093365;28;20020;-58
2022/04/28 06:24:36;;;;;;;5.13;3.45;;;;;;;9.48;75.59;96314.03;5090677;28;20062;-58
2022/04/28 06:27:02;;;;;;;3.67;3.47;;;;;;;9.80;73.17;96317.72;5094391;28;20035;-58
2022/04/28 06:29:27;;;;;;;4.35;3.30;;;;;;;10.22;71.29;96306.50;5096368;28;20032;-57
2022/04/28 06:31:53;;;;;;;3.40;3.20;;;;;;;10.69;69.65;96314.13;5095073;28;20043;-58
2022/04/28 06:34:18;;;;;;;3.08;2.88;;;;;;;11.08;67.70;96314.38;5092830;28;20495;-58
2022/04/28 06:36:43;;;;;;;3.30;3.00;;;;;;;11.42;67.18;96315.94;5095943;28;20439;-58
2022/04/28 06:39:09;;;;;;;2.83;2.63;;;;;;;11.69;64.58;96307.44;5096411;28;20073;-58
2022/04/28 06:55:46;;;;;;;2.53;2.33;;;;;;;14.20;54.35;96311.16;5103755;27;20405;-60
2022/04/28 06:58:11;;;;;;;2.67;2.47;;;;;;;14.41;54.45;96302.91;5093065;28;20047;-61
2022/04/28 07:00:37;;;;;;;2.88;2.60;;;;;;;14.63;53.91;96304.28;5098044;28;20016;-60
2022/04/28 07:03:02;;;;;;;3.25;2.40;;;;;;;15.01;53.77;96302.28;5098762;28;20506;-60
2022/04/28 07:05:28;;;;;;;3.10;2.80;;;;;;;15.41;54.66;96307.19;5101085;28;20051;-60
2022/04/28 07:07:53;;;;;;;3.03;2.40;;;;;;;15.60;50.09;96312.25;5091240;28;20027;-60
2022/04/28 07:10:18;;;;;;;2.40;2.20;;;;;;;16.15;50.17;96315.50;5096445;28;20081;-61
2022/04/28 07:12:44;;;;;;;4.35;2.40;;;;;;;16.28;49.19;96309.72;5089503;28;20040;-60
2022/04/28 07:15:09;;;;;;;2.13;2.03;;;;;;;16.73;47.98;96307.63;5092139;28;20025;-60
2022/04/28 07:17:35;;;;;;;2.50;2.30;;;;;;;16.78;47.46;96307.13;5095919;28;20501;-60
2022/04/28 07:20:00;;;;;;;2.60;2.35;;;;;;;16.96;44.81;96306.13;5095568;28;20101;-60
2022/04/28 07:22:26;;;;;;;2.78;2.47;;;;;;;17.12;44.50;96311.44;5092255;28;20027;-60
2022/04/28 07:24:51;;;;;;;2.40;2.20;;;;;;;17.20;45.39;96307.13;5100343;28;20023;-60
2022/04/28 07:27:16;;;;;;;2.53;2.40;;;;;;;17.14;46.02;96306.81;5092333;28;20547;-60
2022/04/28 07:29:42;;;;;;;3.30;2.47;;;;;;;17.03;45.17;96308.00;5093612;28;20483;-58
2022/04/28 07:32:08;;;;;;;2.20;2.10;;;;;;;16.92;45.51;96310.13;5095953;28;20492;-59
2022/04/28 07:34:33;;;;;;;3.25;2.95;;;;;;;17.36;45.07;96307.13;5095960;28;20543;-59
2022/04/28 07:36:58;;;;;;;3.30;2.85;;;;;;;17.57;43.89;96311.03;5094854;28;20406;-59
2022/04/28 07:39:24;;;;;;;4.63;2.70;;;;;;;18.10;43.75;96310.53;5092855;28;20103;-60
2022/04/28 07:41:49;;;;;;;2.97;2.65;;;;;;;18.78;42.35;96308.13;5092695;28;20028;-60
2022/04/28 07:44:15;;;;;;;3.65;2.58;;;;;;;19.17;41.90;96307.16;5091212;28;20040;-60
2022/04/28 07:46:40;;;;;;;2.72;2.47;;;;;;;18.80;40.57;96311.44;5095093;28;20110;-60
2022/04/28 07:49:05;;;;;;;5.80;2.40;;;;;;;18.98;40.55;96305.81;5094772;28;20043;-60
2022/04/28 07:51:31;;;;;;;2.60;2.47;;;;;;;18.42;42.03;96311.34;5094979;28;20035;-59
2022/04/28 07:53:56;;;;;;;5.75;2.67;;;;;;;18.66;41.10;96306.84;5079323;28;20123;-60
2022/04/28 07:56:22;;;;;;;3.00;2.45;;;;;;;18.65;41.17;96315.88;5087905;28;20051;-60
2022/04/28 07:58:47;;;;;;;2.85;2.50;;;;;;;18.58;40.87;96315.78;5084482;28;20122;-60
2022/04/28 08:01:14;;;;;;;2.78;2.60;;;;;;;18.28;42.76;96321.78;5081109;28;20040;-60
2022/04/28 08:03:40;;;;;;;6.70;2.40;;;;;;;18.21;42.16;96315.47;5077400;28;20028;-60
2022/04/28 08:06:07;;;;;;;2.90;2.58;;;;;;;17.78;43.66;96314.97;5080822;28;20043;-60
2022/04/28 08:08:35;;;;;;;2.65;2.45;;;;;;;18.21;42.13;96318.13;5076869;28;20659;-60
2022/04/28 08:11:00;;;;;;;2.88;2.60;;;;;;;18.66;41.66;96305.03;5080335;28;20048;-60
2022/04/28 08:13:26;;;;;;;3.53;2.88;;;;;;;19.11;40.39;96304.38;5081382;28;20440;-60
2022/04/28 08:15:53;;;;;;;2.80;2.60;;;;;;;19.01;40.01;96307.28;5075609;28;20037;-60
2022/04/28 08:18:19;;;;;;;2.58;2.47;;;;;;;18.67;40.65;96311.19;5081036;28;20514;-60
2022/04/28 08:20:44;;;;;;;2.95;2.30;;;;;;;18.51;41.05;96317.47;5079309;28;20089;-60
2022/04/28 08:23:09;;;;;;;2.65;2.45;;;;;;;18.42;41.54;96314.88;5078319;28;20075;-60
2022/04/28 08:25:35;;;;;;;3.20;2.63;;;;;;;19.02;41.62;96311.63;5071993;28;20202;-60
2022/04/28 08:28:00;;;;;;;2.55;2.30;;;;;;;18.96;41.14;96317.66;5082692;28;20032;-60
2022/04/28 08:30:26;;;;;;;2.78;2.50;;;;;;;19.01;40.73;96308.13;5077729;28;20561;-60
2022/04/28 08:32:51;;;;;;;2.53;2.33;;;;;;;19.35;41.54;96314.00;5080157;28;20407;-60
2022/04/28 08:35:17;;;;;;;2.92;2.70;;;;;;;19.36;40.08;96310.31;5077759;28;20051;-60
2022/04/28 08:37:42;;;;;;;4.55;2.58;;;;;;;19.53;39.83;96312.78;5079804;28;20116;-60
2022/04/28 08:40:08;;;;;;;2.58;2.38;;;;;;;19.89;38.99;96317.41;5078400;28;20024;-60
2022/04/28 08:42:37;;;;;;;3.35;2.50;;;;;;;20.09;39.49;96317.69;5079214;28;20035;-60
2022/04/28 08:45:04;;;;;;;2.63;2.42;;;;;;;20.42;38.91;96316.41;5083937;28;20062;-59
2022/04/28 08:47:30;;;;;;;2.30;2.20;;;;;;;20.84;38.03;96311.31;5076146;28;20056;-60
2022/04/28 08:49:56;;;;;;;3.08;2.83;;;;;;;20.61;36.85;96310.44;5075626;28;20078;-59
2022/04/28 08:52:21;;;;;;;2.60;2.30;;;;;;;20.52;37.43;96311.59;5081102;28;20036;-59
2022/04/28 08:54:47;;;;;;;2.58;2.38;;;;;;;20.93;36.15;96312.84;5080266;28;20124;-59
2022/04/28 08:57:13;;;;;;;2.42;2.00;;;;;;;21.23;35.49;96312.69;5080211;28;20043;-56
2022/04/28 08:59:40;;;;;;;2.22;2.10;;;;;;;21.60;35.40;96313.34;5078083;28;20020;-59
2022/04/28 09:02:10;;;;;;;2.20;2.10;;;;;;;22.23;33.79;96305.44;5076894;28;20521;-59
2022/04/28 09:04:35;;;;;;;2.35;2.20;;;;;;;21.84;34.11;96313.91;5076506;28;20502;-59
2022/04/28 09:07:01;;;;;;;2.95;2.20;;;;;;;21.88;34.35;96309.00;5077813;28;20035;-59
2022/04/28 09:09:28;;;;;;;2.55;2.35;;;;;;;22.20;34.67;96298.59;5077445;28;20028;-59
2022/04/28 09:11:58;;;;;;;2.63;2.42;;;;;;;21.54;35.15;96300.75;5075203;28;20039;-59
2022/04/28 09:14:23;;;;;;;2.35;2.20;;;;;;;22.20;33.19;96301.28;5081597;28;20507;-59
2022/04/28 09:16:52;;;;;;;2.30;2.10;;;;;;;22.97;33.27;96294.88;5085617;28;20031;-58
2022/04/28 09:19:21;;;;;;;2.70;2.30;;;;;;;23.54;32.42;96295.28;5079114;28;20029;-59
2022/04/28 09:21:46;;;;;;;2.75;2.55;;;;;;;23.93;31.42;96295.38;5079695;28;20839;-59
2022/04/28 09:24:14;;;;;;;8.63;2.15;;;;;;;22.65;31.43;96295.47;5077084;28;20035;-58
2022/04/28 09:26:41;;;;;;;4.65;2.33;;;;;;;22.45;32.86;96300.75;5073864;28;20020;-59
2022/04/28 09:29:12;;;;;;;2.80;2.10;;;;;;;22.57;33.80;96296.47;5074173;28;20513;-59
2022/04/28 09:31:39;;;;;;;2.75;2.38;;;;;;;22.97;32.52;96289.50;5083933;28;20035;-58
2022/04/28 09:34:09;;;;;;;2.65;2.45;;;;;;;23.67;32.05;96282.88;5081393;28;20032;-59
2022/04/28 09:36:35;;;;;;;2.80;2.60;;;;;;;22.85;32.39;96292.78;5077125;28;20483;-59
2022/04/28 09:39:02;;;;;;;4.38;2.15;;;;;;;22.80;32.75;96295.28;5084326;28;20368;-59
2022/04/28 09:44:12;;;;;;;2.63;2.15;;;;;;;23.73;30.90;96287.38;5077902;28;20410;-59
2022/04/28 09:46:41;;;;;;;4.10;2.30;;;;;;;24.01;30.46;96284.44;5085403;28;20036;-58
2022/04/28 09:49:09;;;;;;;2.33;2.13;;;;;;;23.70;31.41;96280.56;5087514;28;20048;-58
2022/04/28 09:51:39;;;;;;;2.83;2.13;;;;;;;23.58;29.95;96291.13;5076247;28;20025;-59
2022/04/28 09:54:10;;;;;;;4.32;2.13;;;;;;;24.03;30.11;96287.75;5082411;28;20043;-59
2022/04/28 09:56:40;;;;;;;2.65;2.10;;;;;;;24.39;29.84;96282.81;5074525;28;20028;-59
2022/04/28 09:59:09;;;;;;;3.05;2.17;;;;;;;23.76;30.02;96286.97;5087484;28;20036;-59
2022/04/28 10:01:35;;;;;;;5.47;2.53;;;;;;;23.85;30.26;96293.75;5078041;28;20031;-58
2022/04/28 10:04:01;;;;;;;3.80;2.42;;;;;;;24.23;31.28;96275.22;5081772;28;20418;-59
2022/04/28 10:06:30;;;;;;;3.75;2.08;;;;;;;24.14;30.94;96278.19;5073742;28;20024;-59
2022/04/28 10:08:56;;;;;;;2.15;2.05;;;;;;;25.02;29.77;96280.34;5086714;28;20419;-58
2022/04/28 10:11:23;;;;;;;2.13;1.92;;;;;;;24.83;29.26;96277.56;5080572;28;20043;-59
2022/04/28 10:13:51;;;;;;;2.00;1.80;;;;;;;25.09;27.35;96273.06;5077840;28;20399;-59
2022/04/28 10:16:19;;;;;;;3.97;1.80;;;;;;;24.83;28.70;96272.19;5078595;28;20024;-58
2022/04/28 10:19:01;;;;;;;3.85;2.17;;;;;;;24.98;28.42;96271.91;5081369;28;20040;-58
2022/04/28 10:21:48;;;;;;;3.92;2.40;;;;;;;25.47;27.50;96265.88;5082087;28;20490;-59
2022/04/28 10:32:56;;;;;;;3.88;2.17;;;;;;;24.37;30.68;96275.97;5076068;28;20133;-59
2022/04/28 10:35:46;;;;;;;3.13;2.10;;;;;;;23.97;29.67;96267.03;5081487;28;20097;-59
2022/04/28 10:38:19;;;;;;;2.53;2.33;;;;;;;24.72;29.26;96270.19;5076574;28;20035;-58
2022/04/28 10:40:56;;;;;;;2.42;2.22;;;;;;;25.36;27.35;96272.81;5077340;28;20056;-59
2022/04/28 10:43:26;;;;;;;2.17;1.98;;;;;;;25.77;27.26;96265.16;5078017;28;20039;-59
2022/04/28 10:45:53;;;;;;;2.28;2.05;;;;;;;25.45;27.24;96267.97;5081077;28;20524;-58
2022/04/28 10:48:33;;;;;;;1.88;1.77;;;;;;;25.81;27.33;96260.13;5079487;28;20025;-59
2022/04/28 10:51:03;;;;;;;2.33;2.13;;;;;;;24.48;28.91;96272.63;5079180;28;20781;-59
2022/04/28 10:53:29;;;;;;;1.90;1.80;;;;;;;25.83;27.14;96261.53;5080896;28;20024;-58
2022/04/28 10:55:55;;;;;;;2.35;2.00;;;;;;;26.51;26.81;96266.09;5073862;28;20051;-59
2022/04/28 10:58:26;;;;;;;2.00;1.90;;;;;;;26.44;26.64;96264.34;5079780;28;20024;-59
2022/04/28 11:00:59;;;;;;;2.20;2.10;;;;;;;26.10;26.08;96258.53;5074967;28;20115;-59
2022/04/28 11:03:51;;;;;;;1.70;1.60;;;;;;;25.42;27.27;96261.13;5084151;28;20565;-59
2022/04/28 11:06:31;;;;;;;2.72;2.00;;;;;;;25.59;26.46;96261.38;5083678;28;20111;-59
2022/04/28 11:08:59;;;;;;;3.92;1.95;;;;;;;26.53;25.55;96254.03;5080242;28;20099;-59
2022/04/28 11:11:29;;;;;;;2.17;2.08;;;;;;;26.26;25.05;96256.28;5080089;28;20036;-59
2022/04/28 11:13:57;;;;;;;2.00;1.90;;;;;;;26.08;26.25;96251.72;5077122;28;20434;-59
2022/04/28 11:16:24;;;;;;;1.80;1.67;;;;;;;26.07;25.63;96250.06;5079032;28;20066;-59
2022/04/28 11:18:50;;;;;;;2.03;1.80;;;;;;;26.29;25.67;96258.53;5074718;28;20029;-59
2022/04/28 11:21:15;;;;;;;2.10;1.90;;;;;;;26.47;25.85;96254.97;5082028;28;20051;-59
2022/04/28 11:23:45;;;;;;;2.10;2.00;;;;;;;26.23;25.81;96249.47;5076305;28;20060;-59
2022/04/28 11:26:11;;;;;;;2.42;1.88;;;;;;;26.49;26.12;96258.25;5079117;28;20036;-59
2022/04/28 11:28:38;;;;;;;2.00;1.90;;;;;;;26.65;25.86;96251.38;5081697;28;20021;-59
2022/04/28 11:31:09;;;;;;;2.17;1.90;;;;;;;27.03;25.95;96249.34;5080575;28;20039;-59
2022/04/28 11:33:38;;;;;;;3.13;1.80;;;;;;;26.07;25.87;96250.06;5081886;28;20117;-59
2022/04/28 11:36:17;;;;;;;1.92;1.83;;;;;;;26.31;24.71;96251.03;5083318;28;20028;-59
2022/04/28 11:38:57;;;;;;;2.00;1.60;;;;;;;27.20;24.23;96241.41;5081628;28;20064;-59
2022/04/28 11:41:25;;;;;;;3.30;2.25;;;;;;;27.41;23.83;96248.06;5081621;28;20112;-59
2022/04/28 11:43:52;;;;;;;2.05;1.88;;;;;;;27.38;23.67;96242.31;5084187;28;20047;-59
2022/04/28 11:46:17;;;;;;;2.45;1.77;;;;;;;27.35;23.27;96242.78;5082378;28;20029;-59
2022/04/28 11:48:42;;;;;;;2.13;1.60;;;;;;;27.37;23.28;96238.78;5086914;28;20603;-59
2022/04/28 11:51:08;;;;;;;2.33;2.08;;;;;;;26.80;24.30;96234.72;5082097;28;20115;-59
2022/04/28 11:53:44;;;;;;;2.17;2.00;;;;;;;27.16;23.55;96235.63;5086758;28;20082;-59
2022/04/28 11:56:17;;;;;;;1.85;1.73;;;;;;;27.13;22.70;96238.81;5082884;28;20025;-58
2022/04/28 11:58:46;;;;;;;2.20;2.00;;;;;;;27.31;22.51;96232.44;5089133;28;20054;-59
2022/04/28 12:01:12;;;;;;;2.47;1.73;;;;;;;27.03;23.58;96236.69;5077661;28;20059;-59
2022/04/28 12:03:38;;;;;;;2.10;2.00;;;;;;;27.62;24.17;96237.75;5079353;28;20036;-59
2022/04/28 12:06:04;;;;;;;1.50;1.50;;;;;;;27.52;23.83;96234.81;5084498;28;20425;-59
2022/04/28 12:08:30;;;;;;;1.92;1.83;;;;;;;27.06;23.25;96231.88;5084285;28;20637;-59
2022/04/28 12:19:22;;;;;;;5.50;1.80;;;;;;;27.72;22.57;96224.41;5083635;28;20123;-58
2022/04/28 12:21:47;;;;;;;2.13;1.65;;;;;;;27.88;23.46;96227.44;5079878;28;20501;-59
2022/04/28 12:24:18;;;;;;;1.90;1.70;;;;;;;28.14;22.48;96222.53;5079018;28;20107;-59
2022/04/28 12:26:45;;;;;;;1.67;1.58;;;;;;;28.49;21.64;96228.88;5080482;28;20032;-59
2022/04/28 12:29:13;;;;;;;1.90;1.80;;;;;;;28.39;21.98;96233.06;5082248;28;20033;-59